Time;durP1;ratioP1;P1;durP2;ratioP2;P2;SDS_P1;SDS_P2;PMS_P1;PMS_P2;Temp;Humidity;BMP_temperature;BMP_pressure;BME280_temperature;BME280_humidity;BME280_pressure;Samples;Min_cycle;Max_cycle;Signal;HPM_P1;HPM_P2
2021/06/10 00:02:24;;;;;;;9.17;7.13;;;15.20;99.90;;;;;;5013426;28;20473;-56
2021/06/10 00:04:50;;;;;;;8.50;6.63;;;15.10;99.90;;;;;;5009534;28;20473;-56
2021/06/10 00:07:17;;;;;;;7.83;5.70;;;15.10;99.90;;;;;;4997829;28;20486;-56
2021/06/10 00:09:45;;;;;;;7.27;6.00;;;15.10;99.90;;;;;;5010880;28;20954;-56
2021/06/10 00:12:13;;;;;;;8.87;6.13;;;15.10;99.90;;;;;;5007995;28;21061;-56
2021/06/10 00:14:41;;;;;;;7.30;5.40;;;15.00;99.90;;;;;;5010076;28;20517;-56
2021/06/10 00:17:08;;;;;;;6.87;5.80;;;15.00;99.90;;;;;;5009123;28;20464;-56
2021/06/10 00:19:34;;;;;;;6.57;5.90;;;15.10;99.90;;;;;;5010012;28;20465;-56
2021/06/10 00:22:01;;;;;;;7.90;6.70;;;15.00;99.90;;;;;;5012711;28;21027;-55
2021/06/10 00:24:28;;;;;;;7.20;6.43;;;15.00;99.90;;;;;;5008268;28;20496;-56
2021/06/10 00:26:54;;;;;;;8.33;6.73;;;14.90;99.90;;;;;;5011921;28;20504;-56
2021/06/10 00:29:21;;;;;;;10.43;7.40;;;14.90;99.90;;;;;;5012338;28;21214;-55
2021/06/10 00:31:49;;;;;;;10.00;6.80;;;14.90;99.90;;;;;;5012366;28;20465;-56
2021/06/10 00:34:16;;;;;;;9.10;7.40;;;14.80;99.90;;;;;;5012694;28;20469;-56
2021/06/10 00:36:43;;;;;;;11.30;7.70;;;14.80;99.90;;;;;;5010667;28;20548;-56
2021/06/10 00:39:10;;;;;;;8.10;6.77;;;14.80;99.90;;;;;;5012555;28;20457;-56
2021/06/10 00:41:37;;;;;;;13.23;8.17;;;14.80;99.90;;;;;;5010978;28;20640;-56
2021/06/10 00:44:06;;;;;;;9.90;7.70;;;14.80;99.90;;;;;;5016120;28;20472;-56
2021/06/10 00:46:33;;;;;;;9.90;6.83;;;14.80;99.90;;;;;;5006658;28;20490;-56
2021/06/10 00:49:02;;;;;;;9.03;7.73;;;14.80;99.90;;;;;;5012428;28;20457;-56
2021/06/10 00:51:29;;;;;;;9.40;7.53;;;14.80;99.90;;;;;;5030944;28;20469;-56
2021/06/10 00:53:58;;;;;;;12.53;7.50;;;14.80;99.90;;;;;;5020709;28;20453;-56
2021/06/10 00:56:24;;;;;;;10.77;7.40;;;14.80;99.90;;;;;;5012621;28;20833;-56
2021/06/10 00:58:53;;;;;;;10.00;7.43;;;14.80;99.90;;;;;;5012429;28;20520;-55
2021/06/10 01:01:20;;;;;;;8.60;7.20;;;14.80;99.90;;;;;;5012500;28;20473;-56
2021/06/10 01:03:46;;;;;;;9.90;7.33;;;14.80;99.90;;;;;;5032378;28;20540;-56
2021/06/10 01:06:27;;;;;;;9.40;7.57;;;14.80;99.90;;;;;;5031523;28;20476;-56
2021/06/10 01:09:00;;;;;;;8.30;6.97;;;14.80;99.90;;;;;;5013737;28;20448;-56
2021/06/10 01:11:37;;;;;;;11.57;6.57;;;14.70;99.90;;;;;;5012006;28;20485;-56
2021/06/10 01:14:13;;;;;;;9.30;6.70;;;14.70;99.90;;;;;;5012051;28;20453;-56
2021/06/10 01:16:42;;;;;;;8.30;6.90;;;14.70;99.90;;;;;;5024032;28;20452;-55
2021/06/10 01:19:14;;;;;;;10.97;8.07;;;14.70;99.90;;;;;;5017341;28;20469;-56
2021/06/10 01:21:44;;;;;;;12.27;8.07;;;14.80;99.90;;;;;;5017489;28;20472;-56
2021/06/10 01:24:43;;;;;;;8.50;7.27;;;14.70;99.90;;;;;;5029355;28;20457;-56
2021/06/10 01:27:24;;;;;;;10.30;7.83;;;14.70;99.90;;;;;;4979136;28;20489;-55
2021/06/10 01:29:56;;;;;;;9.07;7.37;;;14.60;99.90;;;;;;5026062;28;20487;-55
2021/06/10 01:32:24;;;;;;;8.67;7.03;;;14.50;99.90;;;;;;5017986;28;21183;-56
2021/06/10 01:34:52;;;;;;;10.13;7.27;;;14.50;99.90;;;;;;5011981;28;20446;-56
2021/06/10 01:37:20;;;;;;;10.23;7.00;;;14.50;99.90;;;;;;5012180;28;20449;-56
2021/06/10 01:39:49;;;;;;;7.60;6.50;;;14.50;99.90;;;;;;5020752;28;20981;-56
2021/06/10 01:42:17;;;;;;;10.73;7.30;;;14.50;99.90;;;;;;5031334;28;20476;-55
2021/06/10 01:44:48;;;;;;;12.60;7.90;;;14.50;99.90;;;;;;5025592;28;20471;-56
2021/06/10 01:47:16;;;;;;;8.63;7.03;;;14.50;99.90;;;;;;5009570;28;20520;-56
2021/06/10 01:49:44;;;;;;;11.60;7.83;;;14.40;99.90;;;;;;4992423;28;20512;-56
2021/06/10 01:52:10;;;;;;;12.00;7.83;;;14.40;99.90;;;;;;4992299;28;20470;-56
2021/06/10 01:54:38;;;;;;;9.47;7.40;;;14.40;99.90;;;;;;5012816;28;20453;-56
2021/06/10 01:57:07;;;;;;;10.80;7.90;;;14.30;99.90;;;;;;5011776;28;20472;-56
2021/06/10 01:59:35;;;;;;;9.50;7.30;;;14.30;99.90;;;;;;5023838;28;20452;-56
2021/06/10 02:02:05;;;;;;;10.70;8.13;;;14.20;99.90;;;;;;5031427;28;20908;-56
2021/06/10 02:04:32;;;;;;;10.60;8.10;;;14.20;99.90;;;;;;5013562;28;20460;-56
2021/06/10 02:07:01;;;;;;;10.77;7.60;;;14.20;99.90;;;;;;5011840;28;20477;-55
2021/06/10 02:09:28;;;;;;;7.63;6.47;;;14.20;99.90;;;;;;5011677;28;20500;-56
2021/06/10 02:11:55;;;;;;;8.80;7.40;;;14.20;99.90;;;;;;5011201;28;20476;-56
2021/06/10 02:14:23;;;;;;;9.80;6.93;;;14.20;99.90;;;;;;5028804;28;20514;-55
2021/06/10 02:16:52;;;;;;;9.77;6.87;;;14.20;99.90;;;;;;5031311;28;20945;-56
2021/06/10 02:19:20;;;;;;;9.90;6.70;;;14.10;99.90;;;;;;5018387;28;20461;-56
2021/06/10 02:21:46;;;;;;;8.03;6.10;;;14.00;99.90;;;;;;5021448;28;20472;-56
2021/06/10 02:24:15;;;;;;;8.57;6.13;;;14.00;99.90;;;;;;5014046;28;20457;-55
2021/06/10 02:26:42;;;;;;;8.37;6.53;;;14.10;99.90;;;;;;5017404;28;20477;-55
2021/06/10 02:29:09;;;;;;;6.77;5.83;;;14.20;99.90;;;;;;5035412;28;20494;-55
2021/06/10 02:31:36;;;;;;;7.40;6.10;;;14.20;99.90;;;;;;5034970;28;20464;-55
2021/06/10 02:34:04;;;;;;;6.60;5.73;;;14.20;99.90;;;;;;5032953;28;20918;-55
2021/06/10 02:36:33;;;;;;;8.17;6.03;;;14.10;99.90;;;;;;5033182;28;20444;-56
2021/06/10 02:39:03;;;;;;;8.40;5.23;;;14.10;99.90;;;;;;5034742;28;20479;-55
2021/06/10 02:41:31;;;;;;;6.10;5.23;;;14.10;99.90;;;;;;5026595;28;20523;-55
2021/06/10 02:43:59;;;;;;;8.57;5.40;;;14.10;99.90;;;;;;5015183;28;20458;-55
2021/06/10 02:46:28;;;;;;;6.17;5.27;;;14.10;99.90;;;;;;5014764;28;20504;-55
2021/06/10 02:48:57;;;;;;;9.03;5.90;;;14.30;99.90;;;;;;5014844;28;20884;-56
2021/06/10 02:51:30;;;;;;;7.10;5.43;;;14.20;99.90;;;;;;5017009;28;20832;-56
2021/06/10 02:53:58;;;;;;;7.20;5.90;;;14.10;99.90;;;;;;5015510;28;20441;-56
2021/06/10 02:56:29;;;;;;;8.17;6.33;;;14.00;99.90;;;;;;5029197;28;20453;-56
2021/06/10 02:58:59;;;;;;;8.30;6.50;;;14.00;99.90;;;;;;5021481;28;20507;-56
2021/06/10 03:01:30;;;;;;;8.23;6.50;;;14.00;99.90;;;;;;5019341;28;20557;-56
2021/06/10 03:03:58;;;;;;;7.57;6.23;;;14.10;99.90;;;;;;5020747;28;20816;-55
2021/06/10 03:06:26;;;;;;;8.20;6.33;;;14.20;99.90;;;;;;5015738;28;20485;-55
2021/06/10 03:08:53;;;;;;;9.83;6.93;;;14.20;99.90;;;;;;4995057;28;20450;-55
2021/06/10 03:11:23;;;;;;;10.97;7.90;;;14.20;99.90;;;;;;5033710;28;20492;-56
2021/06/10 03:13:51;;;;;;;10.07;7.50;;;14.20;99.90;;;;;;5034301;28;20882;-55
2021/06/10 03:16:18;;;;;;;9.90;7.30;;;14.20;99.90;;;;;;5033379;28;20447;-55
2021/06/10 03:18:45;;;;;;;9.13;6.47;;;14.10;99.90;;;;;;5034073;28;20934;-55
2021/06/10 03:21:12;;;;;;;10.20;7.07;;;14.20;99.90;;;;;;5034201;28;20468;-55
2021/06/10 03:23:39;;;;;;;10.10;6.97;;;14.10;99.90;;;;;;5031379;28;21172;-55
2021/06/10 03:26:07;;;;;;;10.67;6.73;;;14.10;99.90;;;;;;5019337;28;20481;-54
2021/06/10 03:28:36;;;;;;;9.33;6.10;;;14.20;99.90;;;;;;5014385;28;20461;-55
2021/06/10 03:31:04;;;;;;;7.83;6.43;;;14.30;99.90;;;;;;5013673;28;20986;-55
2021/06/10 03:33:31;;;;;;;7.97;6.10;;;14.20;99.90;;;;;;5013880;28;20453;-55
2021/06/10 03:35:57;;;;;;;8.60;6.90;;;14.10;99.90;;;;;;5013996;28;20457;-56
2021/06/10 03:38:25;;;;;;;7.43;6.17;;;14.10;99.90;;;;;;5022033;28;20457;-55
2021/06/10 03:40:54;;;;;;;7.00;6.00;;;14.00;99.90;;;;;;5014469;28;20473;-55
2021/06/10 03:43:21;;;;;;;9.90;7.83;;;14.00;99.90;;;;;;5013660;28;20453;-56
2021/06/10 03:45:51;;;;;;;9.70;6.57;;;14.00;99.90;;;;;;5013628;28;20451;-55
2021/06/10 03:48:18;;;;;;;9.40;6.63;;;13.90;99.90;;;;;;4977154;28;20530;-55
2021/06/10 03:50:45;;;;;;;9.30;7.20;;;13.90;99.90;;;;;;4994081;28;20979;-55
2021/06/10 03:53:12;;;;;;;10.67;7.03;;;14.00;99.90;;;;;;5008166;28;20479;-55
2021/06/10 03:55:41;;;;;;;8.60;6.67;;;14.00;99.90;;;;;;5015123;28;20827;-55
2021/06/10 03:58:08;;;;;;;8.97;7.30;;;14.10;99.90;;;;;;5013616;28;20472;-55
2021/06/10 04:00:34;;;;;;;8.43;6.13;;;14.10;99.90;;;;;;5013576;28;21157;-55
2021/06/10 04:03:02;;;;;;;9.70;6.63;;;14.10;99.90;;;;;;5013497;28;20456;-54
2021/06/10 04:05:31;;;;;;;9.03;6.80;;;14.10;99.90;;;;;;5013622;28;20946;-54
2021/06/10 04:07:58;;;;;;;11.00;6.47;;;14.20;99.90;;;;;;5031736;28;21064;-54
2021/06/10 04:10:25;;;;;;;7.40;6.10;;;14.20;99.90;;;;;;5024126;28;20585;-54
2021/06/10 04:12:53;;;;;;;9.10;6.57;;;14.30;99.90;;;;;;5025499;28;20539;-55
2021/06/10 04:15:20;;;;;;;7.50;6.70;;;14.30;99.90;;;;;;5021105;28;20856;-54
2021/06/10 04:17:47;;;;;;;10.20;6.77;;;14.30;99.90;;;;;;5013439;28;20454;-54
2021/06/10 04:20:15;;;;;;;8.63;6.60;;;14.40;99.90;;;;;;5013364;28;20943;-55
2021/06/10 04:22:42;;;;;;;7.83;6.30;;;14.40;99.90;;;;;;5012870;28;20472;-55
2021/06/10 04:25:10;;;;;;;8.67;6.87;;;14.50;99.90;;;;;;5013058;28;20457;-54
2021/06/10 04:27:37;;;;;;;11.40;6.80;;;14.50;99.90;;;;;;5016845;28;20497;-54
2021/06/10 04:30:05;;;;;;;8.97;6.83;;;14.70;99.90;;;;;;5013153;28;20516;-54
2021/06/10 04:32:31;;;;;;;7.43;6.33;;;14.70;99.90;;;;;;5013868;28;20476;-54
2021/06/10 04:34:58;;;;;;;6.27;5.27;;;14.70;99.90;;;;;;5023631;28;20445;-54
2021/06/10 04:37:26;;;;;;;7.13;5.47;;;14.70;99.90;;;;;;5012815;28;20887;-55
2021/06/10 04:39:53;;;;;;;6.77;4.97;;;14.70;99.90;;;;;;5013023;28;20808;-54
2021/06/10 04:42:19;;;;;;;6.17;5.20;;;14.70;99.90;;;;;;5012489;28;20474;-54
2021/06/10 04:44:46;;;;;;;6.43;5.30;;;14.90;99.90;;;;;;5015014;28;20450;-55
2021/06/10 04:47:12;;;;;;;5.03;4.53;;;15.00;99.90;;;;;;5012074;28;20512;-55
2021/06/10 04:49:39;;;;;;;7.03;5.40;;;15.20;99.90;;;;;;5024093;28;20448;-55
2021/06/10 04:52:07;;;;;;;6.90;5.23;;;15.10;99.90;;;;;;5030922;28;20468;-55
2021/06/10 04:54:35;;;;;;;6.90;5.37;;;15.20;99.90;;;;;;5014468;28;20464;-55
2021/06/10 04:57:01;;;;;;;6.67;5.30;;;15.10;99.90;;;;;;5012491;28;21000;-55
2021/06/10 04:59:28;;;;;;;8.20;5.57;;;15.20;99.90;;;;;;5012676;28;20456;-55
2021/06/10 05:01:54;;;;;;;5.87;5.00;;;15.40;99.90;;;;;;5013158;28;20479;-54
2021/06/10 05:04:21;;;;;;;6.40;5.33;;;15.90;99.90;;;;;;5027259;28;20453;-54
2021/06/10 05:06:48;;;;;;;5.27;4.70;;;16.50;99.90;;;;;;5031670;28;20480;-55
2021/06/10 05:09:14;;;;;;;5.47;4.90;;;17.10;99.90;;;;;;5032114;28;20449;-55
2021/06/10 05:11:42;;;;;;;5.90;5.30;;;17.70;99.90;;;;;;5058298;22;20866;-50
2021/06/10 05:14:09;;;;;;;5.73;4.37;;;18.20;99.90;;;;;;5051486;28;20461;-49
2021/06/10 05:16:35;;;;;;;6.27;4.10;;;18.80;99.90;;;;;;5051154;28;20447;-50
2021/06/10 05:19:02;;;;;;;5.53;3.97;;;19.20;99.90;;;;;;5040597;28;20514;-50
2021/06/10 05:21:29;;;;;;;5.93;4.23;;;19.40;99.90;;;;;;5045938;28;20476;-49
2021/06/10 05:23:57;;;;;;;6.17;4.37;;;19.60;99.90;;;;;;5031552;28;20452;-50
2021/06/10 05:26:26;;;;;;;5.43;4.67;;;20.10;99.90;;;;;;5031349;28;20487;-50
2021/06/10 05:28:54;;;;;;;5.90;4.50;;;20.20;99.90;;;;;;5028758;28;20518;-50
2021/06/10 05:31:23;;;;;;;4.30;3.90;;;19.90;99.90;;;;;;5024911;28;20530;-50
2021/06/10 05:33:51;;;;;;;5.60;4.30;;;20.20;99.90;;;;;;5030976;28;20954;-49
2021/06/10 05:36:17;;;;;;;4.70;4.30;;;20.20;99.90;;;;;;5031366;28;20449;-50
2021/06/10 05:38:44;;;;;;;4.93;4.30;;;20.40;99.90;;;;;;5031763;28;20448;-50
2021/06/10 05:41:10;;;;;;;4.40;4.00;;;20.20;99.90;;;;;;5031565;28;20499;-50
2021/06/10 05:43:37;;;;;;;4.70;4.30;;;20.40;99.90;;;;;;5032464;28;20448;-50
2021/06/10 05:46:05;;;;;;;4.97;4.30;;;20.60;99.90;;;;;;5031349;28;20831;-50
2021/06/10 05:48:31;;;;;;;4.33;3.97;;;20.80;99.90;;;;;;5031370;28;20456;-50
2021/06/10 05:50:58;;;;;;;5.33;4.00;;;21.30;99.90;;;;;;5030971;28;20864;-50
2021/06/10 05:53:25;;;;;;;4.53;4.13;;;21.60;99.90;;;;;;5031240;28;20455;-50
2021/06/10 05:55:51;;;;;;;4.70;4.30;;;21.60;99.90;;;;;;5031487;28;20534;-50
2021/06/10 05:58:18;;;;;;;5.77;4.67;;;21.50;99.90;;;;;;5031392;28;21005;-50
2021/06/10 06:00:45;;;;;;;5.33;4.00;;;21.60;99.90;;;;;;5033934;28;20466;-50
2021/06/10 06:03:12;;;;;;;4.33;3.93;;;21.90;99.90;;;;;;5034326;28;20471;-51
2021/06/10 06:05:39;;;;;;;4.13;3.77;;;22.30;99.90;;;;;;5035470;28;20448;-50
2021/06/10 06:08:06;;;;;;;4.40;4.10;;;22.50;99.90;;;;;;5035295;28;20484;-50
2021/06/10 06:10:33;;;;;;;3.97;3.67;;;22.80;99.90;;;;;;5035172;28;20452;-51
2021/06/10 06:13:03;;;;;;;5.63;3.50;;;22.60;99.90;;;;;;5034209;28;20479;-51
2021/06/10 06:15:29;;;;;;;4.00;3.60;;;22.90;99.90;;;;;;5034501;28;21006;-51
2021/06/10 06:17:56;;;;;;;4.40;3.63;;;22.80;99.90;;;;;;5034253;28;20448;-50
2021/06/10 06:20:24;;;;;;;4.30;3.90;;;22.70;99.90;;;;;;5033628;28;20460;-50
2021/06/10 06:22:51;;;;;;;5.43;3.70;;;23.10;99.90;;;;;;5032701;28;20485;-50
2021/06/10 06:25:19;;;;;;;4.40;3.77;;;23.30;99.90;;;;;;5031142;28;20835;-51
2021/06/10 06:27:46;;;;;;;3.30;3.10;;;22.80;99.90;;;;;;5032475;28;20479;-50
2021/06/10 06:30:14;;;;;;;4.30;3.43;;;23.20;99.90;;;;;;5032731;28;20510;-50
2021/06/10 06:32:40;;;;;;;7.50;3.60;;;23.50;99.90;;;;;;5030699;28;21063;-50
2021/06/10 06:35:08;;;;;;;4.37;3.27;;;23.80;99.90;;;;;;5034018;28;20448;-51
2021/06/10 06:37:37;;;;;;;3.57;2.83;;;24.00;99.90;;;;;;5033890;28;20449;-50
2021/06/10 06:40:05;;;;;;;3.60;3.07;;;24.30;99.90;;;;;;5033527;28;21020;-51
2021/06/10 06:42:32;;;;;;;4.60;3.87;;;24.70;99.90;;;;;;5033982;28;20472;-51
2021/06/10 06:44:59;;;;;;;4.30;3.90;;;25.10;99.90;;;;;;5033542;28;20461;-51
2021/06/10 06:47:25;;;;;;;4.33;3.30;;;25.00;99.90;;;;;;5034341;28;20484;-51
2021/06/10 06:49:51;;;;;;;3.67;3.37;;;24.90;99.90;;;;;;5034202;28;20475;-51
2021/06/10 06:52:18;;;;;;;4.00;3.30;;;24.80;99.90;;;;;;5033586;28;20460;-51
2021/06/10 06:54:46;;;;;;;3.67;3.38;;;24.90;99.90;;;;;;5031665;28;20445;-51
2021/06/10 06:57:12;;;;;;;3.33;3.13;;;25.30;99.90;;;;;;5033900;28;20264;-51
2021/06/10 06:59:39;;;;;;;3.60;3.30;;;25.50;99.90;;;;;;5034054;28;20953;-51
2021/06/10 07:02:06;;;;;;;3.70;3.40;;;25.40;99.90;;;;;;5033902;28;20468;-51
2021/06/10 07:04:32;;;;;;;3.40;3.10;;;25.10;99.90;;;;;;5033835;28;20444;-51
2021/06/10 07:06:59;;;;;;;3.00;2.80;;;25.50;99.90;;;;;;5034421;28;20476;-50
2021/06/10 07:09:26;;;;;;;2.93;2.73;;;25.80;99.90;;;;;;5032084;28;20946;-51
2021/06/10 07:11:56;;;;;;;4.13;2.50;;;25.70;99.90;;;;;;5031259;28;20569;-51
2021/06/10 07:14:23;;;;;;;3.17;2.87;;;25.90;99.90;;;;;;5033757;28;20459;-51
2021/06/10 07:16:49;;;;;;;2.73;2.53;;;26.10;99.90;;;;;;5033670;28;20830;-50
2021/06/10 07:19:16;;;;;;;3.20;2.90;;;26.20;99.90;;;;;;5033934;28;20514;-51
2021/06/10 07:21:44;;;;;;;2.53;2.30;;;25.80;99.90;;;;;;5031562;28;20515;-51
2021/06/10 07:24:11;;;;;;;2.97;2.67;;;26.10;99.90;;;;;;5032655;28;20463;-50
2021/06/10 07:26:38;;;;;;;3.30;3.00;;;26.60;99.90;;;;;;5032789;28;20481;-50
2021/06/10 07:29:06;;;;;;;3.33;3.00;;;26.70;99.90;;;;;;5034510;28;20448;-51
2021/06/10 07:31:33;;;;;;;3.53;3.27;;;26.90;99.90;;;;;;5032371;28;20479;-51
2021/06/10 07:34:02;;;;;;;3.87;3.17;;;26.80;99.90;;;;;;5033595;28;20452;-51
2021/06/10 07:36:29;;;;;;;3.23;2.90;;;27.40;99.90;;;;;;5033614;28;20475;-51
2021/06/10 07:38:55;;;;;;;3.30;3.10;;;27.80;99.90;;;;;;5033622;28;20823;-50
2021/06/10 07:41:24;;;;;;;4.13;3.30;;;28.00;99.90;;;;;;5033480;28;20534;-50
2021/06/10 07:43:51;;;;;;;3.20;2.90;;;28.20;99.90;;;;;;5033481;28;20938;-50
2021/06/10 07:46:19;;;;;;;4.43;3.20;;;28.50;99.90;;;;;;5033461;28;21011;-50
2021/06/10 07:48:46;;;;;;;3.17;2.97;;;28.50;99.90;;;;;;5033561;28;20452;-50
2021/06/10 07:51:12;;;;;;;3.80;3.50;;;28.30;99.90;;;;;;5033428;28;20445;-50
2021/06/10 07:53:39;;;;;;;3.60;3.20;;;28.00;99.90;;;;;;5033132;28;20448;-51
2021/06/10 07:56:06;;;;;;;3.30;3.10;;;26.80;99.90;;;;;;5033611;28;20460;-51
2021/06/10 07:58:33;;;;;;;5.03;3.23;;;27.10;99.90;;;;;;5033616;28;20448;-50
2021/06/10 08:01:00;;;;;;;4.10;3.10;;;27.80;99.90;;;;;;5033103;28;20444;-50
2021/06/10 08:03:28;;;;;;;4.10;3.30;;;28.20;99.90;;;;;;5033347;28;20445;-50
2021/06/10 08:05:56;;;;;;;3.10;2.90;;;28.30;99.90;;;;;;5032997;28;20453;-51
2021/06/10 08:08:23;;;;;;;4.00;3.63;;;28.50;99.90;;;;;;5032877;28;20932;-51
2021/06/10 08:10:50;;;;;;;3.40;3.20;;;28.90;99.90;;;;;;5033225;28;20452;-51
2021/06/10 08:13:18;;;;;;;3.60;3.17;;;27.70;99.90;;;;;;5032699;28;20484;-50
2021/06/10 08:15:45;;;;;;;3.37;3.07;;;27.50;99.90;;;;;;5033033;28;20453;-51
2021/06/10 08:18:12;;;;;;;3.70;3.40;;;27.80;99.90;;;;;;5032951;28;20473;-51
2021/06/10 08:20:40;;;;;;;3.80;3.50;;;28.00;99.90;;;;;;5032328;28;20519;-51
2021/06/10 08:23:07;;;;;;;4.43;4.03;;;28.60;99.90;;;;;;5031872;28;20549;-50
2021/06/10 08:25:34;;;;;;;3.73;3.50;;;28.30;99.90;;;;;;5032811;28;20468;-50
2021/06/10 08:28:02;;;;;;;4.60;4.30;;;27.80;99.90;;;;;;5032774;28;20564;-50
2021/06/10 08:30:31;;;;;;;6.30;4.50;;;26.00;99.90;;;;;;5032627;28;20499;-50
2021/06/10 08:32:57;;;;;;;4.60;4.20;;;25.00;99.90;;;;;;5032506;28;20483;-50
2021/06/10 08:35:24;;;;;;;4.47;4.10;;;25.00;99.90;;;;;;5032575;28;20536;-51
2021/06/10 08:37:52;;;;;;;3.80;3.50;;;26.10;99.90;;;;;;5031220;28;20453;-50
2021/06/10 08:40:19;;;;;;;3.37;3.10;;;26.90;99.90;;;;;;5012906;28;20511;-50
2021/06/10 08:42:46;;;;;;;4.60;4.20;;;26.30;99.90;;;;;;5012445;28;20983;-51
2021/06/10 08:45:14;;;;;;;4.20;3.60;;;26.40;99.90;;;;;;5022060;28;20835;-51
2021/06/10 08:47:42;;;;;;;4.67;3.70;;;27.20;99.90;;;;;;5032154;28;20484;-51
2021/06/10 08:50:12;;;;;;;4.07;3.77;;;27.90;99.90;;;;;;5032527;28;20448;-50
2021/06/10 08:52:39;;;;;;;4.23;3.70;;;28.20;99.90;;;;;;5031882;28;20468;-51
2021/06/10 08:55:09;;;;;;;6.00;5.40;;;28.70;99.90;;;;;;5032391;28;20943;-50
2021/06/10 08:57:35;;;;;;;8.00;7.30;;;29.20;99.90;;;;;;5032061;28;20502;-51
2021/06/10 09:00:02;;;;;;;9.20;8.30;;;28.60;99.90;;;;;;5031762;28;20456;-51
2021/06/10 09:02:29;;;;;;;9.00;8.10;;;26.80;99.90;;;;;;5031171;28;20468;-51
2021/06/10 09:05:01;;;;;;;9.57;8.57;;;25.90;99.90;;;;;;5032324;28;20505;-50
2021/06/10 09:07:34;;;;;;;10.57;8.00;;;25.50;99.90;;;;;;5030614;28;20476;-50
2021/06/10 09:10:01;;;;;;;10.40;7.73;;;25.80;99.90;;;;;;5031915;28;20544;-50
2021/06/10 09:12:35;;;;;;;9.80;8.80;;;26.00;99.90;;;;;;5030834;28;20502;-49
2021/06/10 09:15:09;;;;;;;11.40;10.30;;;26.60;99.90;;;;;;5017341;28;20509;-50
2021/06/10 09:17:38;;;;;;;12.73;10.30;;;26.40;99.90;;;;;;5021818;28;20946;-50
2021/06/10 09:20:44;;;;;;;12.13;10.60;;;25.70;99.90;;;;;;5031930;28;20449;-50
2021/06/10 09:23:15;;;;;;;14.10;10.10;;;24.20;99.90;;;;;;5011655;28;20473;-50
2021/06/10 09:25:43;;;;;;;13.83;11.20;;;24.70;99.90;;;;;;5015374;28;20483;-50
2021/06/10 09:28:11;;;;;;;11.30;10.20;;;25.40;99.90;;;;;;5031792;28;20603;-50
2021/06/10 09:30:41;;;;;;;13.03;10.20;;;25.50;99.90;;;;;;5031502;28;20452;-50
2021/06/10 09:33:10;;;;;;;13.20;11.33;;;25.50;99.90;;;;;;5027593;28;20466;-50
2021/06/10 09:35:40;;;;;;;14.23;11.43;;;25.50;99.90;;;;;;5013420;28;20449;-50
2021/06/10 09:38:08;;;;;;;11.13;9.93;;;25.30;99.90;;;;;;5031328;28;21021;-50
2021/06/10 09:40:36;;;;;;;9.37;8.47;;;25.70;99.90;;;;;;5030784;28;20452;-50
2021/06/10 09:43:04;;;;;;;11.70;9.80;;;26.70;99.90;;;;;;5031208;28;20465;-50
2021/06/10 09:45:32;;;;;;;10.27;9.27;;;25.70;99.90;;;;;;5030898;28;20535;-50
2021/06/10 09:48:01;;;;;;;11.40;9.27;;;25.00;99.90;;;;;;5030597;28;20480;-50
2021/06/10 09:50:30;;;;;;;9.63;8.70;;;25.70;99.90;;;;;;5028062;28;20444;-50
2021/06/10 09:52:59;;;;;;;11.80;8.30;;;26.60;99.90;;;;;;5031007;28;20468;-50
2021/06/10 09:55:40;;;;;;;9.03;8.13;;;26.50;99.90;;;;;;5018444;28;20454;-50
2021/06/10 09:58:20;;;;;;;8.93;8.13;;;26.70;99.90;;;;;;5011645;28;20831;-50
2021/06/10 10:00:57;;;;;;;8.63;7.83;;;26.70;99.90;;;;;;5011634;28;20445;-50
2021/06/10 10:03:41;;;;;;;9.93;8.93;;;26.90;99.90;;;;;;5011668;28;20453;-51
2021/06/10 10:06:17;;;;;;;9.30;8.37;;;27.60;99.90;;;;;;5016880;28;20972;-50
2021/06/10 10:08:45;;;;;;;9.97;9.00;;;27.40;99.90;;;;;;5031086;28;20486;-50
2021/06/10 10:11:12;;;;;;;9.73;8.70;;;27.40;99.90;;;;;;5031268;28;20452;-50
2021/06/10 10:13:40;;;;;;;13.67;10.13;;;27.80;99.90;;;;;;5031056;28;20480;-49
2021/06/10 10:16:08;;;;;;;9.33;8.43;;;27.30;99.90;;;;;;5031397;28;20452;-50
2021/06/10 10:18:35;;;;;;;10.60;8.80;;;27.20;99.90;;;;;;5031441;28;20445;-51
2021/06/10 10:21:02;;;;;;;9.13;8.23;;;27.20;99.90;;;;;;5030852;28;20449;-50
2021/06/10 10:23:29;;;;;;;8.33;7.53;;;27.50;99.90;;;;;;5029348;28;20471;-51
2021/06/10 10:25:59;;;;;;;9.23;8.30;;;28.10;99.90;;;;;;5030252;28;20456;-51
2021/06/10 10:28:28;;;;;;;9.67;8.70;;;28.40;99.90;;;;;;5031297;28;20899;-51
2021/06/10 10:30:55;;;;;;;8.27;7.50;;;28.70;99.90;;;;;;5030385;28;20543;-51
2021/06/10 10:33:25;;;;;;;8.23;7.43;;;29.00;99.90;;;;;;5030570;28;20456;-51
2021/06/10 10:35:52;;;;;;;10.53;8.83;;;28.70;99.90;;;;;;5031114;28;20461;-50
2021/06/10 10:38:22;;;;;;;10.60;9.17;;;27.40;99.90;;;;;;5030519;28;20464;-50
2021/06/10 10:40:54;;;;;;;9.40;8.50;;;25.70;99.90;;;;;;5031831;28;20444;-49
2021/06/10 10:43:21;;;;;;;8.90;8.00;;;25.20;99.90;;;;;;5030694;28;20451;-49
2021/06/10 10:46:05;;;;;;;8.60;7.80;;;25.00;99.90;;;;;;5031577;28;20543;-50
2021/06/10 10:48:35;;;;;;;8.60;7.70;;;24.90;99.90;;;;;;5034039;28;20557;-50
2021/06/10 10:51:02;;;;;;;6.00;5.50;;;24.90;99.90;;;;;;5034420;28;20457;-50
2021/06/10 10:53:45;;;;;;;6.90;6.20;;;25.00;99.90;;;;;;5031781;28;20815;-49
2021/06/10 10:56:13;;;;;;;7.83;6.93;;;25.80;99.90;;;;;;5034348;28;20458;-50
2021/06/10 10:58:40;;;;;;;6.10;5.60;;;25.60;99.90;;;;;;5034205;28;20448;-49
2021/06/10 11:01:10;;;;;;;8.67;6.27;;;24.80;99.90;;;;;;5033034;28;20449;-50
2021/06/10 11:03:43;;;;;;;6.27;5.70;;;24.90;99.90;;;;;;5032955;28;20462;-50
2021/06/10 11:06:32;;;;;;;6.43;5.87;;;25.60;99.90;;;;;;5034229;28;20539;-49
2021/06/10 11:09:11;;;;;;;6.47;5.80;;;26.20;99.90;;;;;;5033639;28;20476;-50
2021/06/10 11:11:58;;;;;;;7.23;6.50;;;25.90;99.90;;;;;;5057912;22;20480;-53
2021/06/10 11:14:35;;;;;;;6.40;5.90;;;26.20;99.90;;;;;;5009153;28;20461;-52
2021/06/10 11:17:24;;;;;;;6.50;5.90;;;26.00;99.90;;;;;;5012174;28;21013;-53
2021/06/10 11:20:00;;;;;;;7.47;6.80;;;26.20;99.90;;;;;;5004834;28;20497;-53
2021/06/10 11:22:36;;;;;;;6.70;6.10;;;26.40;99.90;;;;;;4993872;28;20581;-53
2021/06/10 11:25:05;;;;;;;7.20;6.50;;;26.40;99.90;;;;;;5007052;28;20456;-53
2021/06/10 11:27:33;;;;;;;8.50;7.37;;;26.20;99.90;;;;;;5012835;28;20485;-52
2021/06/10 11:30:28;;;;;;;7.40;6.80;;;25.50;99.90;;;;;;5012924;28;20458;-52
2021/06/10 11:33:02;;;;;;;7.57;6.87;;;25.20;99.90;;;;;;4998492;28;21002;-52
2021/06/10 11:35:37;;;;;;;7.90;7.20;;;25.50;99.90;;;;;;5013147;28;20457;-52
2021/06/10 11:38:05;;;;;;;9.20;7.13;;;25.60;99.90;;;;;;5013268;28;20452;-53
2021/06/10 11:40:31;;;;;;;7.60;7.00;;;25.50;99.90;;;;;;5013377;28;20446;-52
2021/06/10 11:42:58;;;;;;;7.67;7.07;;;25.20;99.90;;;;;;5012776;28;20473;-53
2021/06/10 11:45:27;;;;;;;8.30;7.40;;;25.70;99.90;;;;;;5012790;28;20955;-52
2021/06/10 11:47:54;;;;;;;8.47;7.67;;;25.00;99.90;;;;;;5012008;28;20964;-52
2021/06/10 11:50:41;;;;;;;8.00;7.20;;;25.30;99.90;;;;;;5012658;28;20450;-52
2021/06/10 11:53:09;;;;;;;8.77;7.97;;;25.50;99.90;;;;;;5012214;28;20505;-52
2021/06/10 11:55:38;;;;;;;12.63;8.60;;;25.20;99.90;;;;;;5012884;28;20449;-52
2021/06/10 11:58:07;;;;;;;9.30;8.40;;;24.60;99.90;;;;;;5012425;28;20465;-54
2021/06/10 12:00:36;;;;;;;8.83;7.93;;;24.50;99.90;;;;;;5012276;28;20453;-52
2021/06/10 12:03:06;;;;;;;9.27;7.50;;;24.60;99.90;;;;;;5012634;28;20978;-52
2021/06/10 12:05:36;;;;;;;8.40;7.70;;;24.80;99.90;;;;;;5012813;28;20915;-52
2021/06/10 12:08:09;;;;;;;8.07;7.37;;;24.70;99.90;;;;;;5011381;28;20481;-51
2021/06/10 12:10:35;;;;;;;7.83;7.13;;;24.50;99.90;;;;;;5012368;28;20465;-51
2021/06/10 12:13:03;;;;;;;8.20;7.40;;;24.60;99.90;;;;;;5011368;28;20477;-52
2021/06/10 12:15:40;;;;;;;7.90;7.10;;;24.60;99.90;;;;;;5012752;28;20528;-52
2021/06/10 12:18:08;;;;;;;8.23;7.53;;;24.70;99.90;;;;;;5011333;28;20453;-52
2021/06/10 12:20:37;;;;;;;8.53;7.63;;;24.80;99.90;;;;;;5012429;28;20462;-52
2021/06/10 12:23:11;;;;;;;8.00;7.30;;;25.20;99.90;;;;;;5011968;28;20474;-51
2021/06/10 12:25:38;;;;;;;7.70;7.00;;;25.20;99.90;;;;;;5012510;28;20509;-52
2021/06/10 12:28:05;;;;;;;8.40;7.70;;;25.30;99.90;;;;;;5011651;28;20496;-52
2021/06/10 12:30:35;;;;;;;8.23;7.50;;;24.80;99.90;;;;;;5012153;28;20449;-52
2021/06/10 12:33:16;;;;;;;8.00;7.30;;;24.70;99.90;;;;;;5012157;28;20473;-52
2021/06/10 12:35:45;;;;;;;7.63;6.93;;;24.70;99.90;;;;;;5011545;28;20453;-52
2021/06/10 12:38:14;;;;;;;7.67;6.97;;;24.60;99.90;;;;;;4992275;28;20513;-51
2021/06/10 12:40:43;;;;;;;7.73;7.03;;;24.70;99.90;;;;;;4992562;28;20454;-52
2021/06/10 12:43:12;;;;;;;8.17;7.47;;;25.10;99.90;;;;;;5009977;28;20619;-52
2021/06/10 12:45:40;;;;;;;7.50;6.87;;;25.10;99.90;;;;;;5012046;28;20446;-52
2021/06/10 12:48:26;;;;;;;7.67;6.97;;;25.00;99.90;;;;;;5012044;28;20563;-52
2021/06/10 12:51:22;;;;;;;7.63;6.93;;;25.00;99.90;;;;;;5011888;28;20449;-51
2021/06/10 12:54:03;;;;;;;7.30;6.70;;;24.80;99.90;;;;;;5011969;28;20819;-51
2021/06/10 12:56:46;;;;;;;6.67;6.07;;;25.00;99.90;;;;;;5011703;28;20449;-51